Latest Weather Observations for Orange Airport

IDN60801

Issued at 5:05 am EDT Thursday 27 November 2014 (issued every 30 minutes, with the page automatically refreshed every 10 minutes)

About weather observations | Map of weather stations | Latest weather observations for NSW | Other Formats
Station Details ID: 063303 Name: ORANGE AIRPORT AWS Lat: -33.38 Lon: 149.13 Height: 944.65 m
Data from the previous 72 hours. | See also: Recent months at Orange Airport
Date/Time
EDT
Temp
°C
App
Temp
°C
Dew
Point
Rel
Hum
%
Delta-T
°C
Wind Press
QNH
hPa
Press
MSL
hPa
Rain
since 9 am
mm
Dir
 
Spd
km/h
Gust
km/h
Spd
kts
Gust
kts
27/05:00am 9.4 9.0 8.3 93 0.6 CALM 0 0 0 0 1020.2 1017.3 0.0
27/04:30am 9.1 7.5 8.0 93 0.6 ESE 6 7 3 4 1019.6 1016.7 0.0
27/04:00am 9.8 8.2 8.7 93 0.6 ESE 7 9 4 5 1019.4 1016.4 0.0
27/03:30am 9.2 8.8 8.1 93 0.6 CALM 0 0 0 0 1019.5 1016.5 0.0
27/03:00am 8.2 5.9 5.8 85 1.1 ESE 7 11 4 6 1019.6 1016.7 0.0
27/02:30am 8.6 5.5 3.8 72 2.2 SE 9 11 5 6 1019.8 1016.9 0.0
27/02:00am 9.1 5.1 2.7 64 2.9 SE 13 15 7 8 1019.9 1017.0 0.0
27/01:30am 8.7 5.4 2.3 64 2.8 S 9 11 5 6 1020.1 1017.2 0.0
27/01:00am 9.7 6.0 2.3 60 3.3 S 11 11 6 6 1020.2 1017.3 0.0
27/12:30am 12.4 8.2 1.4 47 4.9 SSW 13 15 7 8 1020.6 1017.7 0.0
27/12:00am 13.1 8.8 1.1 44 5.4 SSW 13 15 7 8 1020.7 1017.8 0.0
 
Date/Time
EDT
Temp
°C
App
Temp
°C
Dew
Point
Rel
Hum
%
Delta-T
°C
Wind Press
QNH
hPa
Press
MSL
hPa
Rain
since 9 am
mm
Dir
 
Spd
km/h
Gust
km/h
Spd
kts
Gust
kts
26/11:30pm 14.1 9.5 1.7 43 5.7 SSW 15 17 8 9 1020.8 1017.9 0.0
26/11:22pm 13.8 9.2 1.8 44 5.5 SSW 15 17 8 9 1020.8 1017.9 0.0
26/11:10pm 13.0 8.8 1.7 46 5.1 SSW 13 17 7 9 1020.8 1017.9 0.0
26/11:00pm 12.8 8.6 1.8 47 5.0 SSW 13 15 7 8 1020.8 1017.9 0.0
26/10:30pm 12.3 8.4 1.3 47 4.9 SSW 11 11 6 6 1020.9 1018.0 0.0
26/10:00pm 12.4 8.9 1.4 47 4.9 S 9 11 5 6 1020.6 1017.7 0.0
26/09:30pm 15.4 10.9 -0.4 34 7.0 SSW 13 15 7 8 1020.4 1017.4 0.0
26/09:00pm 16.4 11.5 -0.3 32 7.5 SW 15 19 8 10 1020.1 1017.2 0.0
26/08:30pm 16.5 11.9 -0.7 31 7.7 SSW 13 19 7 10 1019.9 1017.0 0.0
26/08:00pm 17.3 13.0 -1.4 28 8.3 SSW 11 13 6 7 1019.8 1016.9 0.0
26/07:30pm 18.9 14.5 -2.1 24 9.3 SSW 11 17 6 9 1019.4 1016.4 0.0
26/07:00pm 21.1 15.0 -2.7 20 10.6 SSW 20 28 11 15 1018.9 1016.0 0.0
26/06:30pm 22.3 16.9 -1.7 20 11.0 SSW 17 24 9 13 1018.6 1015.6 0.0
26/06:00pm 23.3 16.8 -2.3 18 11.7 WSW 22 28 12 15 1018.3 1015.3 0.0
26/05:30pm 23.7 16.8 -6.3 13 12.8 W 22 33 12 18 1018.3 1015.3 0.0
26/05:00pm 23.9 16.8 -4.3 15 12.4 SW 24 33 13 18 1018.4 1015.4 0.0
26/04:30pm 23.2 17.1 -2.4 18 11.7 SW 20 35 11 19 1018.5 1015.5 0.0
26/04:00pm 24.3 18.6 0.6 21 11.5 SW 20 32 11 17 1018.5 1015.5 0.0
26/03:30pm 23.8 18.1 2.6 25 10.6 SW 22 30 12 16 1018.7 1015.8 0.0
26/03:00pm 24.3 19.3 3.6 26 10.6 WSW 19 30 10 16 1018.8 1015.9 0.0
26/02:30pm 23.1 18.4 3.1 27 10.1 SSW 17 24 9 13 1019.1 1016.2 0.0
26/02:00pm 23.3 18.3 3.8 28 10.0 WSW 19 32 10 17 1019.3 1016.3 0.0
26/01:30pm 23.3 18.0 4.8 30 9.6 WSW 22 30 12 16 1019.5 1016.5 0.0
26/01:00pm 23.0 19.6 5.9 33 9.1 NW 13 20 7 11 1019.6 1016.7 0.0
26/12:30pm 23.1 19.1 6.8 35 8.8 WNW 17 26 9 14 1019.9 1017.0 0.0
26/12:00pm 22.3 19.2 7.3 38 8.1 WSW 13 20 7 11 1020.1 1017.2 0.0
26/11:30am 22.1 18.6 5.5 34 8.7 NW 13 19 7 10 1020.5 1017.5 0.0
26/11:00am 21.2 16.6 6.3 38 7.9 N 20 26 11 14 1020.7 1017.8 0.0
26/10:30am 19.9 17.4 6.6 42 7.0 NW 9 17 5 9 1020.8 1017.9 0.0
26/10:00am 18.1 16.2 9.2 56 4.9 NNE 9 15 5 8 1020.9 1018.0 0.0
26/09:30am 17.2 16.1 9.9 62 4.0 N 6 13 3 7 1021.0 1018.1 0.0
26/09:00am 16.1 14.2 10.4 69 3.2 NNE 11 17 6 9 1021.1 1018.2 0.0
26/08:30am 15.2 13.0 10.8 75 2.4 NNE 13 19 7 10 1021.3 1018.4 0.0
26/08:00am 13.8 11.1 10.4 80 1.9 NNE 15 20 8 11 1021.0 1018.1 0.0
26/07:30am 12.5 10.7 10.7 89 1.0 NE 11 13 6 7 1020.7 1017.8 0.0
26/07:00am 10.2 10.0 9.1 93 0.6 CALM 0 0 0 0 1020.6 1017.7 0.0
26/06:30am 7.8 7.0 6.7 93 0.5 CALM 0 0 0 0 1020.5 1017.5 0.0
26/06:11am 6.0 4.9 5.0 93 0.5 CALM 0 0 0 0 1020.4 1017.4 0.0
26/06:00am 5.6 4.4 4.6 93 0.5 CALM 0 0 0 0 1020.4 1017.4 0.0
26/05:30am 6.7 5.3 5.7 93 0.5 ESE 2 7 1 4 1019.9 1017.0 0.0
26/05:00am 6.9 4.8 5.8 93 0.5 ESE 6 6 3 3 1019.8 1016.9 0.0
26/04:46am 6.4 4.2 5.4 93 0.5 ESE 6 9 3 5 1019.7 1016.8 0.0
26/04:30am 7.0 4.7 5.9 93 0.5 SE 7 9 4 5 1019.7 1016.8 0.0
26/04:00am 7.1 4.3 5.1 87 0.9 SSE 9 9 5 5 1019.7 1016.8 0.0
26/03:30am 7.9 4.6 4.8 81 1.4 S 11 13 6 7 1019.7 1016.8 0.0
26/03:00am 7.9 4.3 2.8 70 2.3 S 11 13 6 7 1019.9 1017.0 0.0
26/02:30am 8.2 4.2 0.7 59 3.2 S 11 13 6 7 1020.1 1017.2 0.0
26/02:00am 8.3 4.3 0.5 58 3.3 S 11 13 6 7 1020.5 1017.5 0.0
26/01:30am 7.2 2.7 0.0 60 3.0 SSW 13 13 7 7 1020.7 1017.8 0.0
26/01:00am 6.5 2.0 0.0 63 2.7 S 13 15 7 8 1021.0 1018.1 0.0
26/12:30am 6.7 2.9 -0.7 59 3.0 S 9 11 5 6 1021.3 1018.4 0.0
26/12:00am 10.1 5.1 -1.0 46 4.6 SW 15 17 8 9 1021.3 1018.4 0.0
 
Date/Time
EDT
Temp
°C
App
Temp
°C
Dew
Point
Rel
Hum
%
Delta-T
°C
Wind Press
QNH
hPa
Press
MSL
hPa
Rain
since 9 am
mm
Dir
 
Spd
km/h
Gust
km/h
Spd
kts
Gust
kts
25/11:30pm 10.8 5.7 -1.6 42 5.1 SW 15 17 8 9 1021.3 1018.4 0.0
25/11:00pm 11.6 6.0 -2.6 37 5.8 SW 17 24 9 13 1021.2 1018.3 0.0
25/10:30pm 9.5 4.8 -2.1 44 4.7 SW 13 15 7 8 1021.4 1018.6 0.0
25/10:00pm 10.8 6.1 -4.8 33 6.0 SSW 11 13 6 7 1021.3 1018.4 0.0
25/09:30pm 12.3 7.6 -4.8 30 6.7 SSW 11 13 6 7 1021.0 1018.1 0.0
25/09:00pm 12.7 7.7 -4.4 30 6.8 SSW 13 15 7 8 1020.6 1017.7 0.0
25/08:30pm 13.5 9.3 -3.7 30 7.0 SSW 9 13 5 7 1020.5 1017.5 0.0
25/08:00pm 14.8 10.1 -5.5 24 8.0 SSW 11 11 6 6 1020.4 1017.4 0.0
25/07:30pm 17.2 12.3 -6.6 19 9.4 SSW 11 15 6 8 1020.0 1017.1 0.0
25/07:00pm 19.1 13.7 -8.1 15 10.6 SW 13 19 7 10 1019.7 1016.8 0.0
25/06:30pm 20.3 15.0 -7.1 15 11.1 SW 13 19 7 10 1019.3 1016.3 0.0
25/06:00pm 20.4 14.3 -8.0 14 11.3 SSW 17 24 9 13 1019.1 1016.2 0.0
25/05:30pm 21.1 14.7 -6.5 15 11.4 SSW 19 28 10 15 1018.9 1016.0 0.0
25/05:00pm 21.0 14.5 -7.5 14 11.5 SSW 19 28 10 15 1019.0 1016.1 0.0
25/04:30pm 21.3 15.0 -5.5 16 11.3 SSW 19 28 10 15 1019.1 1016.2 0.0
25/04:00pm 20.9 15.3 -2.9 20 10.5 SSW 17 22 9 12 1019.3 1016.3 0.0
25/03:30pm 19.9 13.9 -3.0 21 10.0 SW 19 24 10 13 1019.5 1016.5 0.0
25/03:00pm 20.4 13.7 -1.4 23 9.9 SW 24 32 13 17 1019.6 1016.7 0.0
25/02:30pm 19.0 13.1 -2.6 23 9.5 SSW 19 28 10 15 1019.5 1016.5 0.0
25/02:00pm 19.3 13.1 -2.9 22 9.7 SW 20 30 11 16 1019.6 1016.7 0.0
25/01:30pm 18.5 12.6 -1.9 25 9.0 SSW 19 28 10 15 1019.7 1016.8 0.0
25/01:00pm 17.6 11.7 -1.1 28 8.3 SSW 20 39 11 21 1019.5 1016.5 0.0
25/12:30pm 17.0 11.0 1.0 34 7.4 SSW 22 39 12 21 1019.5 1016.5 0.0
25/12:00pm 16.6 11.3 3.0 40 6.5 SSW 20 30 11 16 1019.7 1016.8 0.0
25/11:30am 14.9 9.9 3.4 46 5.5 SW 19 24 10 13 1019.7 1016.8 0.0
25/11:00am 13.8 9.2 5.4 57 4.2 SSW 19 24 10 13 1019.5 1016.5 0.0
25/10:30am 12.6 7.5 6.2 65 3.2 SSW 22 30 12 16 1019.3 1016.3 0.0
25/10:00am 12.0 7.4 6.3 68 2.8 SSW 20 28 11 15 1019.0 1016.1 0.0
25/09:30am 11.4 6.0 6.5 72 2.4 SW 24 32 13 17 1018.7 1015.8 0.0
25/09:00am 10.9 5.4 5.7 70 2.5 SW 24 32 13 17 1018.5 1015.5 4.2
25/08:30am 10.7 5.1 5.5 70 2.5 SSW 24 35 13 19 1018.2 1015.2 4.2
25/08:00am 10.7 6.0 6.1 73 2.3 SW 20 37 11 20 1017.9 1015.0 4.2
25/07:30am 11.2 5.9 8.4 83 1.5 SW 26 35 14 19 1017.5 1014.5 4.2
25/07:22am 11.7 7.0 10.6 93 0.6 SW 26 33 14 18 1017.2 1014.2 4.2
25/07:03am 12.0 8.1 10.9 93 0.6 SW 22 30 12 16 1017.0 1014.0 4.2
25/07:00am 12.0 8.1 10.9 93 0.6 SW 22 30 12 16 1017.0 1014.0 4.2
25/06:52am 11.9 7.2 10.8 93 0.6 SSW 26 35 14 19 1016.7 1013.8 4.2
25/06:45am 12.1 6.7 11.0 93 0.6 SSW 30 37 16 20 1016.5 1013.5 4.2
25/06:32am 13.6 9.4 12.5 93 0.6 SW 26 43 14 23 1016.2 1013.2 4.2
25/06:30am 14.0 10.4 12.9 93 0.6 SW 24 35 13 19 1016.1 1013.1 4.2
25/06:26am 14.0 10.7 12.9 93 0.6 SW 22 28 12 15 1016.0 1013.0 4.2
25/06:07am 14.2 9.9 13.1 93 0.6 WSW 28 35 15 19 1016.0 1013.0 4.2
25/06:00am 14.2 10.6 13.1 93 0.6 SW 24 35 13 19 1015.9 1012.9 4.2
25/05:49am 14.4 11.3 13.3 93 0.6 SW 22 32 12 17 1015.5 1012.5 4.2
25/05:30am 14.6 11.1 13.5 93 0.6 WSW 24 32 13 17 1015.1 1012.1 4.2
25/05:11am 14.9 11.5 13.8 93 0.6 WSW 24 32 13 17 1014.8 1011.7 4.2
25/05:07am 15.0 11.7 13.9 93 0.6 WSW 24 32 13 17 1014.7 1011.6 4.2
25/05:00am 15.1 12.6 14.0 93 0.6 WSW 20 28 11 15 1014.7 1011.6 4.2
25/04:30am 15.0 12.4 13.9 93 0.6 W 20 26 11 14 1014.4 1011.4 4.2
25/04:00am 14.7 14.7 13.6 93 0.6 NNW 6 11 3 6 1013.2 1010.2 4.2
25/03:30am 15.0 12.4 13.9 93 0.6 WNW 20 28 11 15 1014.7 1011.6 4.0
25/03:00am 15.0 13.8 13.9 93 0.6 NW 13 19 7 10 1015.1 1012.1 3.8
25/02:30am 15.4 13.2 14.3 93 0.7 NNW 19 24 10 13 1015.1 1012.1 3.6
25/02:00am 15.5 13.6 14.2 92 0.8 W 17 24 9 13 1015.2 1012.2 2.6
25/01:30am 16.8 14.6 14.8 88 1.2 W 20 26 11 14 1015.1 1012.1 2.0
25/01:00am 16.4 17.4 15.3 93 0.7 N 4 11 2 6 1014.9 1011.9 1.8
25/12:30am 16.5 16.9 15.4 93 0.7 WNW 7 9 4 5 1015.0 1012.0 1.8
25/12:00am 16.9 16.0 15.8 93 0.7 WSW 15 19 8 10 1015.5 1012.5 1.6
 
Date/Time
EDT
Temp
°C
App
Temp
°C
Dew
Point
Rel
Hum
%
Delta-T
°C
Wind Press
QNH
hPa
Press
MSL
hPa
Rain
since 9 am
mm
Dir
 
Spd
km/h
Gust
km/h
Spd
kts
Gust
kts
24/11:30pm 19.0 14.6 15.7 81 2.0 WSW 33 48 18 26 1015.9 1012.9 0.8
24/11:28pm 19.1 15.4 16.0 82 1.9 WSW 30 46 16 25 1015.9 1012.9 0.8
24/11:00pm 18.2 17.5 16.4 89 1.1 NNW 15 19 8 10 1015.6 1012.6 0.6
24/10:30pm 18.1 18.5 16.4 90 1.1 N 9 13 5 7 1015.5 1012.5 0.6
24/10:00pm 18.6 19.3 16.0 85 1.6 N 7 11 4 6 1015.3 1012.3 0.2
24/09:30pm 18.6 17.9 15.5 82 1.9 NW 13 15 7 8 1015.7 1012.7 0.2
24/09:00pm 19.8 19.0 15.0 74 2.9 WNW 13 19 7 10 1015.4 1012.4 0.2
24/08:30pm 21.3 21.2 14.0 63 4.4 WNW 7 11 4 6 1014.7 1011.6 0.0
24/08:00pm 22.2 20.9 13.8 59 5.1 W 13 19 7 10 1014.4 1011.4 0.0
24/07:30pm 22.7 21.4 13.7 56 5.5 W 13 17 7 9 1013.7 1010.6 0.0
24/07:00pm 23.1 22.8 14.4 58 5.3 W 9 17 5 9 1013.0 1010.0 0.0
24/06:30pm 23.3 23.0 14.3 57 5.5 SW 9 15 5 8 1012.6 1009.5 0.0
24/06:00pm 24.4 22.4 13.9 52 6.4 W 17 30 9 16 1012.2 1009.2 0.0
24/05:30pm 25.8 23.0 13.3 46 7.6 W 20 28 11 15 1012.8 1009.7 0.0
24/05:00pm 26.2 23.7 14.0 47 7.5 W 20 30 11 16 1013.0 1010.0 0.0
24/04:30pm 25.4 21.7 13.9 49 7.1 W 26 35 14 19 1013.6 1010.5 0.0
24/04:00pm 26.4 20.9 13.5 45 7.9 WSW 35 46 19 25 1013.4 1010.4 0.0
24/03:36pm 27.1 22.0 13.1 42 8.6 WSW 32 37 17 20 1013.7 1010.6 0.0
24/03:30pm 27.5 21.3 12.7 40 9.0 WNW 37 46 20 25 1013.7 1010.6 0.0
24/03:00pm 30.7 26.2 13.9 36 10.5 WNW 30 48 16 26 1013.8 1010.7 0.0
24/02:39pm 30.0 25.0 13.3 36 10.3 WNW 32 50 17 27 1013.9 1010.8 0.0
24/02:30pm 30.1 25.9 13.4 36 10.4 WNW 28 43 15 23 1014.1 1011.1 0.0
24/02:00pm 28.5 25.0 15.4 45 8.3 WNW 28 37 15 20 1014.8 1011.7 0.0
24/01:39pm 26.7 22.1 14.5 47 7.6 WNW 32 57 17 31 1014.9 1011.9 0.0
24/01:30pm 28.4 24.1 14.3 42 8.8 NW 30 43 16 23 1015.0 1012.0 0.0
24/01:09pm 28.3 22.3 12.2 37 9.7 NW 35 57 19 31 1015.0 1012.0 0.0
24/01:00pm 29.7 23.7 12.2 34 10.7 NW 35 46 19 25 1014.9 1011.9 0.0
24/12:30pm 29.9 25.1 12.8 35 10.5 NNW 30 48 16 26 1015.0 1012.0 0.0
24/12:29pm 30.1 25.2 12.5 34 10.8 N 30 48 16 26 1015.0 1012.0 0.0
24/12:00pm 30.5 24.8 12.9 34 10.9 NNW 35 50 19 27 1015.4 1012.4 0.0
24/11:54am 31.2 26.4 13.0 33 11.3 NNW 30 50 16 27 1015.4 1012.4 0.0
24/11:30am 29.4 25.8 13.2 37 10.0 N 24 37 13 20 1015.9 1012.9 0.0
24/11:00am 28.0 24.0 13.1 39 9.1 N 26 33 14 18 1016.4 1013.4 0.0
24/10:30am 26.9 24.7 14.3 46 7.8 N 19 24 10 13 1016.6 1013.6 0.0
24/10:00am 26.0 24.4 13.8 47 7.5 NNE 15 20 8 11 1017.1 1014.1 0.0
24/09:30am 24.0 24.0 15.2 58 5.5 NNE 9 15 5 8 1017.5 1014.5 0.0
24/09:00am 22.5 22.9 15.4 64 4.4 N 7 9 4 5 1017.8 1014.9 0.0
24/08:30am 22.2 22.5 15.1 64 4.4 N 7 9 4 5 1017.6 1014.6 0.0
24/08:00am 20.7 22.4 15.3 71 3.3 CALM 0 6 0 3 1017.8 1014.9 0.0
24/07:30am 19.8 21.3 14.6 72 3.2 CALM 0 0 0 0 1017.8 1014.9 0.0
24/07:00am 18.9 19.2 14.6 76 2.6 SW 6 11 3 6 1017.6 1014.6 0.0
24/06:30am 16.9 16.5 13.0 78 2.3 ENE 7 9 4 5 1017.4 1014.4 0.0
24/06:00am 17.1 16.1 12.2 73 2.8 ENE 9 11 5 6 1017.2 1014.2 0.0
24/05:30am 16.8 15.6 12.7 77 2.4 E 11 13 6 7 1017.1 1014.1 0.0

Other Formats:

Comma delimited format used in spreadsheet applications
http://www.bom.gov.au/fwo/IDN60801/IDN60801.95726.axf

JavaScript Object Notation format (JSON) in row-major order
http://www.bom.gov.au/fwo/IDN60801/IDN60801.95726.json